KOWB/OWB METAR and TAF weather

Enter ICAO airport designator
Station Type Date Time Source
KOWB METAR 2019/10/21 01:56 UTC NOAA

KOWB 210156Z 14005KT 10SM CLR 17/12 A2990 RMK AO2 SLP125 T01720122


Station Type Date Time Source
KOWB Decoded METAR 2019/10/21 01:56 UTC NOAA

Owensboro, Owensboro-Daviess County Airport, KY, United States (KOWB) 37-44-24N 087-10-00W
Oct 20, 2019 - 09:56 PM EDT / 2019.10.21 0156 UTC
Wind: from the SE (140 degrees) at 6 MPH (5 KT):0
Visibility: 10 mile(s):0
Sky conditions: clear
Temperature: 63.0 F (17.2 C)
Dew Point: 54.0 F (12.2 C)
Relative Humidity: 72%
Pressure (altimeter): 29.9 in. Hg (1012 hPa)
ob: KOWB 210156Z 14005KT 10SM CLR 17/12 A2990 RMK AO2 SLP125 T01720122
cycle: 2

Station Type Date Time Source
KOWB TAF 2019/10/20 18:42 UTC NOAA

TAF KOWB 201740Z 2018/2118 VRB03KT P6SM FEW045 FEW180
FM211200 15012KT 6SM SHRA VCTS BKN045CB
FM211300 16013G21KT 6SM SHRA OVC022 WS020/19040KT
FM211400 16014G24KT 6SM SHRA OVC016
FM211700 18017G26KT 6SM SHRA OVC024

Example: see airport list